createdAt,value
2023-02-17T07:21:06.727Z,97.35
2023-02-17T07:23:34.182Z,100.13
2023-02-17T07:26:10.593Z,92.10
2023-02-17T07:28:38.222Z,97.03
2023-02-17T07:31:08.015Z,94.57
2023-02-17T07:33:35.458Z,99.90
2023-02-17T07:36:07.163Z,91.23
2023-02-17T07:38:40.427Z,94.80
2023-02-17T07:41:08.945Z,95.13
2023-02-17T07:43:36.562Z,96.23
2023-02-17T07:46:05.473Z,90.53
2023-02-17T07:48:33.222Z,90.47
2023-02-17T07:51:06.411Z,91.43
2023-02-17T07:53:34.218Z,85.10
2023-02-17T07:56:06.123Z,94.87
2023-02-17T07:58:34.417Z,87.50
2023-02-17T08:01:08.185Z,87.03
2023-02-17T08:03:35.891Z,86.27
2023-02-17T08:06:03.402Z,92.13
2023-02-17T08:08:49.254Z,88.33
2023-02-17T08:11:36.209Z,87.13
2023-02-17T08:14:03.623Z,86.77
2023-02-17T08:16:31.064Z,85.60
2023-02-17T08:18:58.489Z,84.10
2023-02-17T08:21:27.272Z,83.60
2023-02-17T08:23:54.853Z,90.50
2023-02-17T08:26:22.620Z,86.47
2023-02-17T08:28:50.144Z,84.50
2023-02-17T08:31:22.138Z,89.10
2023-02-17T08:33:49.572Z,81.73
2023-02-17T08:36:17.336Z,83.17
2023-02-17T08:38:50.486Z,79.70
2023-02-17T08:41:17.704Z,78.27
2023-02-17T08:43:45.042Z,79.63
2023-02-17T08:46:12.874Z,76.97
2023-02-17T08:48:40.231Z,82.80
2023-02-17T08:51:07.651Z,79.37
2023-02-17T08:53:35.434Z,78.63
2023-02-17T08:56:02.861Z,77.03
2023-02-17T08:58:30.166Z,76.73
2023-02-17T09:00:57.477Z,83.47
2023-02-17T09:03:24.735Z,72.87
2023-02-17T09:05:54.938Z,76.60
2023-02-17T09:08:23.411Z,73.67
2023-02-17T09:10:51.117Z,77.43
2023-02-17T09:13:18.788Z,82.03
2023-02-17T09:15:46.436Z,83.37
2023-02-17T09:18:16.942Z,75.73
2023-02-17T09:20:44.280Z,78.03
2023-02-17T09:23:11.769Z,80.33
2023-02-17T09:25:39.308Z,78.97
2023-02-17T09:28:06.697Z,72.37
2023-02-17T09:30:34.037Z,73.70
2023-02-17T09:33:01.508Z,81.53
2023-02-17T09:35:29.392Z,80.00
2023-02-17T09:37:57.056Z,89.07
2023-02-17T09:40:28.918Z,77.20
2023-02-17T09:42:56.330Z,80.63
2023-02-17T09:45:26.873Z,78.33
2023-02-17T09:47:55.959Z,80.10
2023-02-17T09:50:46.653Z,76.30
2023-02-17T09:53:20.739Z,77.70
2023-02-17T09:55:53.012Z,74.57
2023-02-17T09:58:24.108Z,78.60
2023-02-17T10:00:54.238Z,74.57
2023-02-17T10:03:25.776Z,77.17
2023-02-17T10:05:59.980Z,80.80
2023-02-17T10:08:31.402Z,78.27
2023-02-17T10:11:03.604Z,77.17
2023-02-17T10:13:33.061Z,75.67
2023-02-17T10:16:04.257Z,80.47
2023-02-17T10:18:35.348Z,81.83
2023-02-17T10:21:07.321Z,81.57
2023-02-17T10:23:35.808Z,88.47
2023-02-17T10:26:22.087Z,84.30
2023-02-17T10:28:53.381Z,78.70
2023-02-17T10:31:33.069Z,84.67
2023-02-17T10:34:08.014Z,79.87
2023-02-17T10:36:53.507Z,86.23
2023-02-17T10:39:45.630Z,82.87
2023-02-17T10:42:22.967Z,85.77
2023-02-17T10:44:59.465Z,83.13
2023-02-17T10:47:29.209Z,82.13
2023-02-17T10:50:02.646Z,83.03
2023-02-17T10:52:39.143Z,84.67
2023-02-17T10:55:22.833Z,85.27
2023-02-17T10:57:54.639Z,84.27
2023-02-17T11:00:22.793Z,82.90
2023-02-17T11:02:54.144Z,86.00
2023-02-17T11:05:32.596Z,79.60
2023-02-17T11:08:05.711Z,83.07
2023-02-17T11:10:35.009Z,86.43
2023-02-17T11:13:03.983Z,81.53
2023-02-17T11:15:44.737Z,89.43
2023-02-17T11:18:19.028Z,87.07
2023-02-17T11:20:47.350Z,88.33
2023-02-17T11:23:36.401Z,88.90
2023-02-17T11:26:09.910Z,86.27
2023-02-17T11:28:37.458Z,90.07
2023-02-17T11:31:07.214Z,84.80
2023-02-17T11:33:44.096Z,90.43
2023-02-17T11:36:22.944Z,87.67
2023-02-17T11:38:50.515Z,82.37
2023-02-17T11:41:17.881Z,90.50
2023-02-17T11:43:59.203Z,92.77
2023-02-17T11:46:28.572Z,88.20
2023-02-17T11:49:04.200Z,86.70
2023-02-17T11:51:36.998Z,88.10
2023-02-17T11:54:08.703Z,83.17
2023-02-17T11:56:41.603Z,85.80
2023-02-17T11:59:16.063Z,86.90
2023-02-17T12:02:01.044Z,87.87
2023-02-17T12:04:54.900Z,86.50
2023-02-17T12:07:40.839Z,87.80
2023-02-17T12:10:11.620Z,84.37
2023-02-17T12:12:48.012Z,81.30
2023-02-17T12:15:15.464Z,82.10
2023-02-17T12:17:56.284Z,81.37
2023-02-17T12:20:35.555Z,84.13
2023-02-17T12:23:02.820Z,85.37
2023-02-17T12:25:49.845Z,83.13
2023-02-17T12:28:37.789Z,82.57
2023-02-17T12:31:28.594Z,90.40
2023-02-17T12:34:04.152Z,81.70
2023-02-17T12:36:35.796Z,83.30
2023-02-17T12:39:12.497Z,83.43
2023-02-17T12:41:43.662Z,78.23
2023-02-17T12:44:17.710Z,82.03
2023-02-17T12:46:46.949Z,79.07
2023-02-17T12:49:23.734Z,76.60
2023-02-17T12:51:59.967Z,78.83
2023-02-17T12:54:53.722Z,76.90
2023-02-17T12:57:24.198Z,75.23
2023-02-17T12:59:52.536Z,74.13
2023-02-17T13:02:22.348Z,72.70
2023-02-17T13:04:58.761Z,77.57
2023-02-17T13:07:26.682Z,75.30
2023-02-17T13:09:55.045Z,72.60
2023-02-17T13:12:25.475Z,66.87
2023-02-17T13:14:54.259Z,70.53
2023-02-17T13:17:28.470Z,71.30
2023-02-17T13:20:27.942Z,68.10
2023-02-17T13:23:06.115Z,72.07
2023-02-17T13:25:37.420Z,62.90
2023-02-17T13:28:17.684Z,65.27
2023-02-17T13:30:46.173Z,62.60
2023-02-17T13:33:28.388Z,60.53
2023-02-17T13:35:55.790Z,60.60
2023-02-17T13:38:30.026Z,61.37
2023-02-17T13:41:02.582Z,58.07
2023-02-17T13:43:31.602Z,56.10
2023-02-17T13:46:03.989Z,54.67
2023-02-17T13:48:33.130Z,60.73
2023-02-17T13:51:01.836Z,54.50
2023-02-17T13:53:36.674Z,56.83
2023-02-17T13:56:10.151Z,52.60
2023-02-17T13:58:39.172Z,57.93
2023-02-17T14:01:07.491Z,57.90
2023-02-17T14:03:36.330Z,60.83
2023-02-17T14:06:05.321Z,62.83
2023-02-17T14:08:42.941Z,61.67
2023-02-17T14:11:10.240Z,60.03
2023-02-17T14:13:38.890Z,64.47
2023-02-17T14:16:07.446Z,66.87
2023-02-17T14:18:39.120Z,67.10
2023-02-17T14:21:25.175Z,60.87
2023-02-17T14:23:53.549Z,61.13
2023-02-17T14:26:33.030Z,61.87
2023-02-17T14:29:02.291Z,61.17
2023-02-17T14:31:29.943Z,60.67
2023-02-17T14:34:02.464Z,60.07
2023-02-17T14:36:30.905Z,57.87
2023-02-17T14:39:00.208Z,60.63
2023-02-17T14:41:29.411Z,59.40
2023-02-17T14:43:56.867Z,56.67
2023-02-17T14:46:24.869Z,57.63
2023-02-17T14:48:53.302Z,55.57
2023-02-17T14:51:22.155Z,59.53
2023-02-17T14:53:50.200Z,55.67
2023-02-17T14:56:28.553Z,60.87
2023-02-17T14:58:57.065Z,60.20
2023-02-17T15:01:25.381Z,55.37
2023-02-17T15:03:53.803Z,63.92
2023-02-17T15:06:26.019Z,59.90
2023-02-17T15:08:54.499Z,62.30
2023-02-17T15:11:28.918Z,65.23
2023-02-17T15:13:56.313Z,67.53
2023-02-17T15:16:24.309Z,65.13
2023-02-17T15:18:51.612Z,60.00
2023-02-17T15:21:27.276Z,60.90
2023-02-17T15:23:56.400Z,61.57
2023-02-17T15:26:24.179Z,62.17
2023-02-17T15:28:52.954Z,63.37
2023-02-17T15:31:23.071Z,63.50
2023-02-17T15:33:56.803Z,69.10
2023-02-17T15:36:24.677Z,68.63
2023-02-17T15:38:52.178Z,62.27
2023-02-17T15:41:29.902Z,66.93
2023-02-17T15:43:59.569Z,68.63
2023-02-17T15:46:30.089Z,67.63
2023-02-17T15:48:57.462Z,64.03
2023-02-17T15:51:24.950Z,67.33
2023-02-17T15:53:52.899Z,66.67
2023-02-17T15:56:21.970Z,67.17
2023-02-17T15:58:50.132Z,63.97
2023-02-17T16:01:29.759Z,61.80
2023-02-17T16:03:57.859Z,67.60
2023-02-17T16:06:25.788Z,62.30
2023-02-17T16:08:53.480Z,60.13
2023-02-17T16:11:22.214Z,58.07
2023-02-17T16:13:49.634Z,58.30
2023-02-17T16:16:23.371Z,59.00
2023-02-17T16:18:51.976Z,60.43
2023-02-17T16:21:19.914Z,57.93
2023-02-17T16:23:48.548Z,56.47
2023-02-17T16:26:35.636Z,58.13
2023-02-17T16:29:06.806Z,55.47
2023-02-17T16:31:36.534Z,53.13
2023-02-17T16:34:04.017Z,55.67
2023-02-17T16:36:33.025Z,50.47
2023-02-17T16:39:01.362Z,52.30
2023-02-17T16:41:30.509Z,49.17
2023-02-17T16:44:00.604Z,47.23
2023-02-17T16:46:34.261Z,49.83
2023-02-17T16:49:12.902Z,52.23
2023-02-17T16:51:41.405Z,46.37
2023-02-17T16:54:09.857Z,49.70
2023-02-17T16:56:38.375Z,44.83
2023-02-17T16:59:05.996Z,45.77
2023-02-17T17:01:33.283Z,47.30
2023-02-17T17:04:00.593Z,48.47
2023-02-17T17:06:29.045Z,43.83
2023-02-17T17:08:56.666Z,50.43
2023-02-17T17:11:26.370Z,45.20
2023-02-17T17:13:54.802Z,46.83
2023-02-17T17:16:27.806Z,45.63
2023-02-17T17:18:56.912Z,43.60
2023-02-17T17:21:24.701Z,47.23
2023-02-17T17:23:59.148Z,45.90
2023-02-17T17:26:31.176Z,46.37
2023-02-17T17:28:59.127Z,48.30
2023-02-17T17:31:28.569Z,44.20
2023-02-17T17:33:56.191Z,43.93
2023-02-17T17:36:35.930Z,46.07
2023-02-17T17:39:05.489Z,42.97
2023-02-17T17:41:33.175Z,46.37
2023-02-17T17:44:00.623Z,41.60
2023-02-17T17:46:32.973Z,42.70
2023-02-17T17:49:01.725Z,39.97
2023-02-17T17:51:30.340Z,41.50
2023-02-17T17:53:59.857Z,42.47
2023-02-17T17:56:28.942Z,42.90
2023-02-17T17:58:57.054Z,40.83
2023-02-17T18:01:24.758Z,36.03
2023-02-17T18:03:52.250Z,35.78
2023-02-17T18:06:25.434Z,38.97
2023-02-17T18:08:54.003Z,36.63
2023-02-17T18:11:22.549Z,35.07
2023-02-17T18:13:51.218Z,36.33
2023-02-17T18:16:19.918Z,35.93
2023-02-17T18:18:47.432Z,33.10
2023-02-17T18:21:17.080Z,33.70
2023-02-17T18:24:17.027Z,36.00
2023-02-17T18:26:44.403Z,32.33
2023-02-17T18:29:13.898Z,31.23
2023-02-17T18:31:45.119Z,30.17
2023-02-17T18:34:12.962Z,32.20
2023-02-17T18:36:40.483Z,33.10
2023-02-17T18:39:07.818Z,32.90
2023-02-17T18:41:42.301Z,31.80
2023-02-17T18:44:12.886Z,35.10
2023-02-17T18:46:48.241Z,32.43
2023-02-17T18:49:22.329Z,32.40
2023-02-17T18:51:54.526Z,30.77
2023-02-17T18:54:22.517Z,34.13
2023-02-17T18:56:49.867Z,29.57
2023-02-17T18:59:17.782Z,31.17
2023-02-17T19:01:46.805Z,32.53
2023-02-17T19:04:15.139Z,30.80
2023-02-17T19:06:42.859Z,28.83
2023-02-17T19:09:10.493Z,29.93
2023-02-17T19:11:37.840Z,32.10
2023-02-17T19:14:06.767Z,34.10
2023-02-17T19:16:35.037Z,32.73
2023-02-17T19:19:02.585Z,31.20
2023-02-17T19:21:29.975Z,32.80
2023-02-17T19:23:57.410Z,34.30
2023-02-17T19:26:24.786Z,35.93
2023-02-17T19:28:53.336Z,34.73
2023-02-17T19:31:21.420Z,40.30
2023-02-17T19:33:49.085Z,37.60
2023-02-17T19:36:19.247Z,42.70
2023-02-17T19:38:47.657Z,43.63
2023-02-17T19:41:15.297Z,46.43
2023-02-17T19:43:43.333Z,44.43
2023-02-17T19:46:12.706Z,44.17
2023-02-17T19:48:40.348Z,47.63
2023-02-17T19:51:08.723Z,47.20
2023-02-17T19:53:36.445Z,45.27
2023-02-17T19:56:11.586Z,46.53
2023-02-17T20:02:49.611Z,47.43
2023-02-17T20:05:17.358Z,45.30
2023-02-17T20:07:44.668Z,47.37
2023-02-17T20:10:13.164Z,48.67
2023-02-17T20:12:40.730Z,48.37
2023-02-17T20:15:30.202Z,48.67
2023-02-17T20:17:57.668Z,50.40
2023-02-17T20:20:25.063Z,44.67
2023-02-17T20:22:52.399Z,47.63
2023-02-17T20:25:20.133Z,48.67
2023-02-17T20:27:52.223Z,47.20
2023-02-17T20:30:19.840Z,48.87
2023-02-17T20:32:48.237Z,47.23
2023-02-17T20:35:16.948Z,47.07
2023-02-17T20:37:44.289Z,45.77
2023-02-17T20:40:12.003Z,43.83
2023-02-17T20:42:39.502Z,47.53
2023-02-17T20:45:07.027Z,46.33
2023-02-17T20:47:34.386Z,42.57
2023-02-17T20:50:10.649Z,43.93
2023-02-17T20:52:38.243Z,39.90
2023-02-17T20:55:10.047Z,40.77
2023-02-17T20:57:37.483Z,38.63
2023-02-17T21:00:06.982Z,41.27
2023-02-17T21:02:34.663Z,36.60
2023-02-17T21:05:04.003Z,36.37
2023-02-17T21:07:31.458Z,35.77
2023-02-17T21:09:59.144Z,35.63
2023-02-17T21:12:26.534Z,39.50
2023-02-17T21:14:53.890Z,32.43
2023-02-17T21:17:21.512Z,31.97
2023-02-17T21:19:49.346Z,32.40
2023-02-17T21:22:16.772Z,30.87
2023-02-17T21:24:44.175Z,30.87
2023-02-17T21:27:11.682Z,32.43
2023-02-17T21:29:39.694Z,33.33
2023-02-17T21:32:13.136Z,29.53
2023-02-17T21:34:40.841Z,25.63
2023-02-17T21:37:09.411Z,26.57
2023-02-17T21:39:37.810Z,20.53
2023-02-17T21:42:05.367Z,22.87
2023-02-17T21:44:51.394Z,21.17
2023-02-17T21:47:20.029Z,19.97
2023-02-17T21:49:48.178Z,20.67
2023-02-17T21:52:15.768Z,17.20
2023-02-17T21:54:43.266Z,16.77
2023-02-17T21:57:11.211Z,15.13
2023-02-17T21:59:44.143Z,15.73
2023-02-17T22:02:12.368Z,16.43
2023-02-17T22:04:41.807Z,17.43
2023-02-17T22:07:11.655Z,16.27
2023-02-17T22:09:39.074Z,17.53
2023-02-17T22:12:06.516Z,15.83
2023-02-17T22:14:35.649Z,17.07
2023-02-17T22:17:03.076Z,13.60
2023-02-17T22:19:31.657Z,12.63
2023-02-17T22:21:59.422Z,11.13
2023-02-17T22:24:29.784Z,9.60
2023-02-17T22:26:57.483Z,8.27
2023-02-17T22:29:24.852Z,8.20
2023-02-17T22:31:55.875Z,7.93
2023-02-17T22:34:24.543Z,5.77
2023-02-17T22:36:52.032Z,6.73
2023-02-17T22:39:19.469Z,5.30
2023-02-17T22:41:46.939Z,4.83
2023-02-17T22:44:14.338Z,4.93
2023-02-17T22:46:42.043Z,8.77
2023-02-17T22:49:09.501Z,5.63
2023-02-17T22:51:38.376Z,4.73
